sensor_id;sensor_type;location;lat;lon;timestamp;P1;durP1;ratioP1;P2;durP2;ratioP2
27313;SDS011;14800;48.174;9.798;2022-12-31T00:00:31;0.45;;;0.35;;
27313;SDS011;14800;48.174;9.798;2022-12-31T00:02:59;0.95;;;0.43;;
27313;SDS011;14800;48.174;9.798;2022-12-31T00:05:24;0.50;;;0.22;;
27313;SDS011;14800;48.174;9.798;2022-12-31T00:07:50;0.40;;;0.38;;
27313;SDS011;14800;48.174;9.798;2022-12-31T00:10:16;0.40;;;0.40;;
27313;SDS011;14800;48.174;9.798;2022-12-31T00:12:41;1.60;;;0.30;;
27313;SDS011;14800;48.174;9.798;2022-12-31T00:15:07;0.60;;;0.45;;
27313;SDS011;14800;48.174;9.798;2022-12-31T00:17:33;0.50;;;0.40;;
27313;SDS011;14800;48.174;9.798;2022-12-31T00:19:58;0.40;;;0.40;;
27313;SDS011;14800;48.174;9.798;2022-12-31T00:22:24;0.32;;;0.32;;
27313;SDS011;14800;48.174;9.798;2022-12-31T00:24:49;0.65;;;0.30;;
27313;SDS011;14800;48.174;9.798;2022-12-31T00:27:15;1.48;;;0.40;;
27313;SDS011;14800;48.174;9.798;2022-12-31T00:29:40;0.43;;;0.40;;
27313;SDS011;14800;48.174;9.798;2022-12-31T00:32:06;1.05;;;0.40;;
27313;SDS011;14800;48.174;9.798;2022-12-31T00:34:32;0.40;;;0.30;;
27313;SDS011;14800;48.174;9.798;2022-12-31T00:36:57;0.60;;;0.40;;
27313;SDS011;14800;48.174;9.798;2022-12-31T00:39:23;0.55;;;0.50;;
27313;SDS011;14800;48.174;9.798;2022-12-31T00:41:48;0.50;;;0.40;;
27313;SDS011;14800;48.174;9.798;2022-12-31T00:44:14;1.55;;;0.77;;
27313;SDS011;14800;48.174;9.798;2022-12-31T00:46:40;0.40;;;0.40;;
27313;SDS011;14800;48.174;9.798;2022-12-31T00:49:05;0.73;;;0.40;;
27313;SDS011;14800;48.174;9.798;2022-12-31T00:51:31;0.40;;;0.40;;
27313;SDS011;14800;48.174;9.798;2022-12-31T00:53:57;0.40;;;0.40;;
27313;SDS011;14800;48.174;9.798;2022-12-31T00:56:24;0.50;;;0.50;;
27313;SDS011;14800;48.174;9.798;2022-12-31T00:58:51;0.60;;;0.60;;
27313;SDS011;14800;48.174;9.798;2022-12-31T01:01:18;0.55;;;0.55;;
27313;SDS011;14800;48.174;9.798;2022-12-31T01:03:49;0.63;;;0.50;;
27313;SDS011;14800;48.174;9.798;2022-12-31T01:06:17;0.60;;;0.50;;
27313;SDS011;14800;48.174;9.798;2022-12-31T01:08:44;0.50;;;0.50;;
27313;SDS011;14800;48.174;9.798;2022-12-31T01:11:12;0.55;;;0.55;;
27313;SDS011;14800;48.174;9.798;2022-12-31T01:16:40;0.60;;;0.60;;
27313;SDS011;14800;48.174;9.798;2022-12-31T01:19:09;0.60;;;0.60;;
27313;SDS011;14800;48.174;9.798;2022-12-31T01:21:39;0.70;;;0.50;;
27313;SDS011;14800;48.174;9.798;2022-12-31T01:24:06;0.70;;;0.50;;
27313;SDS011;14800;48.174;9.798;2022-12-31T01:26:33;0.60;;;0.60;;
27313;SDS011;14800;48.174;9.798;2022-12-31T01:28:59;0.95;;;0.60;;
27313;SDS011;14800;48.174;9.798;2022-12-31T01:31:25;0.50;;;0.50;;
27313;SDS011;14800;48.174;9.798;2022-12-31T01:33:51;0.77;;;0.60;;
27313;SDS011;14800;48.174;9.798;2022-12-31T01:36:22;1.08;;;0.60;;
27313;SDS011;14800;48.174;9.798;2022-12-31T01:38:49;0.88;;;0.52;;
27313;SDS011;14800;48.174;9.798;2022-12-31T01:41:17;0.68;;;0.63;;
27313;SDS011;14800;48.174;9.798;2022-12-31T01:51:38;1.70;;;0.63;;
27313;SDS011;14800;48.174;9.798;2022-12-31T01:54:07;0.93;;;0.55;;
27313;SDS011;14800;48.174;9.798;2022-12-31T01:56:34;0.60;;;0.60;;
27313;SDS011;14800;48.174;9.798;2022-12-31T01:59:00;0.47;;;0.35;;
27313;SDS011;14800;48.174;9.798;2022-12-31T02:01:30;0.50;;;0.40;;
27313;SDS011;14800;48.174;9.798;2022-12-31T02:03:57;0.43;;;0.30;;
27313;SDS011;14800;48.174;9.798;2022-12-31T02:06:34;0.40;;;0.30;;
27313;SDS011;14800;48.174;9.798;2022-12-31T02:09:04;0.30;;;0.30;;
27313;SDS011;14800;48.174;9.798;2022-12-31T02:11:33;0.82;;;0.40;;
27313;SDS011;14800;48.174;9.798;2022-12-31T02:14:05;0.52;;;0.32;;
27313;SDS011;14800;48.174;9.798;2022-12-31T02:19:16;0.90;;;0.30;;
27313;SDS011;14800;48.174;9.798;2022-12-31T02:30:20;0.60;;;0.28;;
27313;SDS011;14800;48.174;9.798;2022-12-31T02:32:56;0.40;;;0.25;;
27313;SDS011;14800;48.174;9.798;2022-12-31T02:38:08;0.60;;;0.40;;
27313;SDS011;14800;48.174;9.798;2022-12-31T02:40:38;0.30;;;0.30;;
27313;SDS011;14800;48.174;9.798;2022-12-31T02:43:04;0.50;;;0.22;;
27313;SDS011;14800;48.174;9.798;2022-12-31T02:45:33;0.57;;;0.25;;
27313;SDS011;14800;48.174;9.798;2022-12-31T02:48:09;0.60;;;0.43;;
27313;SDS011;14800;48.174;9.798;2022-12-31T02:51:01;0.30;;;0.22;;
27313;SDS011;14800;48.174;9.798;2022-12-31T02:53:47;0.70;;;0.32;;
27313;SDS011;14800;48.174;9.798;2022-12-31T02:56:48;0.52;;;0.20;;
27313;SDS011;14800;48.174;9.798;2022-12-31T03:02:27;0.65;;;0.15;;
27313;SDS011;14800;48.174;9.798;2022-12-31T03:04:55;0.77;;;0.30;;
27313;SDS011;14800;48.174;9.798;2022-12-31T03:07:22;0.38;;;0.20;;
27313;SDS011;14800;48.174;9.798;2022-12-31T03:09:50;0.20;;;0.20;;
27313;SDS011;14800;48.174;9.798;2022-12-31T03:12:16;1.20;;;0.20;;
27313;SDS011;14800;48.174;9.798;2022-12-31T03:15:02;0.55;;;0.30;;
27313;SDS011;14800;48.174;9.798;2022-12-31T03:17:30;0.47;;;0.20;;
27313;SDS011;14800;48.174;9.798;2022-12-31T03:19:59;1.13;;;0.20;;
27313;SDS011;14800;48.174;9.798;2022-12-31T03:22:43;0.57;;;0.20;;
27313;SDS011;14800;48.174;9.798;2022-12-31T03:25:10;0.35;;;0.20;;
27313;SDS011;14800;48.174;9.798;2022-12-31T03:27:56;0.20;;;0.20;;
27313;SDS011;14800;48.174;9.798;2022-12-31T03:30:23;1.08;;;0.20;;
27313;SDS011;14800;48.174;9.798;2022-12-31T03:32:49;0.35;;;0.20;;
27313;SDS011;14800;48.174;9.798;2022-12-31T03:35:16;0.80;;;0.30;;
27313;SDS011;14800;48.174;9.798;2022-12-31T03:37:44;0.20;;;0.10;;
27313;SDS011;14800;48.174;9.798;2022-12-31T03:40:11;0.88;;;0.20;;
27313;SDS011;14800;48.174;9.798;2022-12-31T03:42:38;0.20;;;0.20;;
27313;SDS011;14800;48.174;9.798;2022-12-31T03:45:04;0.28;;;0.20;;
27313;SDS011;14800;48.174;9.798;2022-12-31T03:47:30;0.25;;;0.25;;
27313;SDS011;14800;48.174;9.798;2022-12-31T03:49:56;0.20;;;0.20;;
27313;SDS011;14800;48.174;9.798;2022-12-31T03:52:22;1.45;;;0.17;;
27313;SDS011;14800;48.174;9.798;2022-12-31T03:54:48;0.77;;;0.30;;
27313;SDS011;14800;48.174;9.798;2022-12-31T03:57:13;0.20;;;0.20;;
27313;SDS011;14800;48.174;9.798;2022-12-31T03:59:39;0.20;;;0.20;;
27313;SDS011;14800;48.174;9.798;2022-12-31T04:02:05;2.05;;;0.30;;
27313;SDS011;14800;48.174;9.798;2022-12-31T04:04:31;0.22;;;0.20;;
27313;SDS011;14800;48.174;9.798;2022-12-31T04:06:56;0.30;;;0.20;;
27313;SDS011;14800;48.174;9.798;2022-12-31T04:09:22;0.30;;;0.20;;
27313;SDS011;14800;48.174;9.798;2022-12-31T04:11:47;0.20;;;0.20;;
27313;SDS011;14800;48.174;9.798;2022-12-31T04:14:13;0.30;;;0.30;;
27313;SDS011;14800;48.174;9.798;2022-12-31T04:16:41;0.25;;;0.13;;
27313;SDS011;14800;48.174;9.798;2022-12-31T04:19:07;0.20;;;0.20;;
27313;SDS011;14800;48.174;9.798;2022-12-31T04:21:32;1.30;;;0.30;;
27313;SDS011;14800;48.174;9.798;2022-12-31T04:23:58;1.88;;;0.60;;
27313;SDS011;14800;48.174;9.798;2022-12-31T04:26:23;20.52;;;8.63;;
27313;SDS011;14800;48.174;9.798;2022-12-31T04:28:49;22.25;;;12.60;;
27313;SDS011;14800;48.174;9.798;2022-12-31T04:31:15;7.22;;;5.07;;
27313;SDS011;14800;48.174;9.798;2022-12-31T04:33:40;5.50;;;4.22;;
27313;SDS011;14800;48.174;9.798;2022-12-31T04:36:06;30.10;;;15.73;;
27313;SDS011;14800;48.174;9.798;2022-12-31T04:38:32;27.35;;;18.15;;
27313;SDS011;14800;48.174;9.798;2022-12-31T04:40:58;16.50;;;11.13;;
27313;SDS011;14800;48.174;9.798;2022-12-31T04:43:43;2.60;;;2.35;;
27313;SDS011;14800;48.174;9.798;2022-12-31T04:46:17;1.88;;;1.40;;
27313;SDS011;14800;48.174;9.798;2022-12-31T04:48:44;1.23;;;0.82;;
27313;SDS011;14800;48.174;9.798;2022-12-31T04:51:10;0.65;;;0.43;;
27313;SDS011;14800;48.174;9.798;2022-12-31T04:53:36;0.30;;;0.30;;
27313;SDS011;14800;48.174;9.798;2022-12-31T04:56:02;0.25;;;0.25;;
27313;SDS011;14800;48.174;9.798;2022-12-31T04:58:28;0.40;;;0.40;;
27313;SDS011;14800;48.174;9.798;2022-12-31T05:00:53;2.63;;;1.15;;
27313;SDS011;14800;48.174;9.798;2022-12-31T05:03:20;0.30;;;0.30;;
27313;SDS011;14800;48.174;9.798;2022-12-31T05:05:47;0.25;;;0.25;;
27313;SDS011;14800;48.174;9.798;2022-12-31T05:08:14;0.20;;;0.20;;
27313;SDS011;14800;48.174;9.798;2022-12-31T05:10:40;0.20;;;0.20;;
27313;SDS011;14800;48.174;9.798;2022-12-31T05:13:13;1.77;;;0.28;;
27313;SDS011;14800;48.174;9.798;2022-12-31T05:15:39;0.13;;;0.13;;
27313;SDS011;14800;48.174;9.798;2022-12-31T05:18:05;0.50;;;0.30;;
27313;SDS011;14800;48.174;9.798;2022-12-31T05:20:31;0.30;;;0.30;;
27313;SDS011;14800;48.174;9.798;2022-12-31T05:22:56;0.30;;;0.25;;
27313;SDS011;14800;48.174;9.798;2022-12-31T05:25:22;0.20;;;0.20;;
27313;SDS011;14800;48.174;9.798;2022-12-31T05:27:48;0.82;;;0.30;;
27313;SDS011;14800;48.174;9.798;2022-12-31T05:30:13;0.40;;;0.30;;
27313;SDS011;14800;48.174;9.798;2022-12-31T05:32:39;2.88;;;2.35;;
27313;SDS011;14800;48.174;9.798;2022-12-31T05:35:05;2.65;;;1.95;;
27313;SDS011;14800;48.174;9.798;2022-12-31T05:37:31;0.60;;;0.50;;
27313;SDS011;14800;48.174;9.798;2022-12-31T05:39:57;1.20;;;0.32;;
27313;SDS011;14800;48.174;9.798;2022-12-31T05:42:23;0.40;;;0.22;;
27313;SDS011;14800;48.174;9.798;2022-12-31T05:44:49;1.05;;;0.30;;
27313;SDS011;14800;48.174;9.798;2022-12-31T05:47:15;0.38;;;0.20;;
27313;SDS011;14800;48.174;9.798;2022-12-31T05:49:41;0.20;;;0.20;;
27313;SDS011;14800;48.174;9.798;2022-12-31T05:52:07;0.40;;;0.38;;
27313;SDS011;14800;48.174;9.798;2022-12-31T05:54:32;0.32;;;0.32;;
27313;SDS011;14800;48.174;9.798;2022-12-31T05:56:58;0.35;;;0.30;;
27313;SDS011;14800;48.174;9.798;2022-12-31T05:59:24;0.68;;;0.38;;
27313;SDS011;14800;48.174;9.798;2022-12-31T06:01:49;0.30;;;0.30;;
27313;SDS011;14800;48.174;9.798;2022-12-31T06:04:15;0.57;;;0.28;;
27313;SDS011;14800;48.174;9.798;2022-12-31T06:06:41;0.52;;;0.28;;
27313;SDS011;14800;48.174;9.798;2022-12-31T06:09:07;0.77;;;0.35;;
27313;SDS011;14800;48.174;9.798;2022-12-31T06:11:32;0.40;;;0.38;;
27313;SDS011;14800;48.174;9.798;2022-12-31T06:13:58;2.65;;;0.47;;
27313;SDS011;14800;48.174;9.798;2022-12-31T06:16:24;0.60;;;0.50;;
27313;SDS011;14800;48.174;9.798;2022-12-31T06:18:49;0.57;;;0.55;;
27313;SDS011;14800;48.174;9.798;2022-12-31T06:21:15;0.40;;;0.40;;
27313;SDS011;14800;48.174;9.798;2022-12-31T06:23:42;0.30;;;0.20;;
27313;SDS011;14800;48.174;9.798;2022-12-31T06:26:07;0.55;;;0.55;;
27313;SDS011;14800;48.174;9.798;2022-12-31T06:28:33;0.50;;;0.50;;
27313;SDS011;14800;48.174;9.798;2022-12-31T06:31:03;0.60;;;0.60;;
27313;SDS011;14800;48.174;9.798;2022-12-31T06:33:31;0.60;;;0.60;;
27313;SDS011;14800;48.174;9.798;2022-12-31T06:35:58;0.30;;;0.30;;
27313;SDS011;14800;48.174;9.798;2022-12-31T06:38:26;0.85;;;0.80;;
27313;SDS011;14800;48.174;9.798;2022-12-31T06:40:52;0.98;;;0.98;;
27313;SDS011;14800;48.174;9.798;2022-12-31T06:43:18;1.02;;;0.93;;
27313;SDS011;14800;48.174;9.798;2022-12-31T06:45:44;0.63;;;0.47;;
27313;SDS011;14800;48.174;9.798;2022-12-31T06:48:10;0.65;;;0.65;;
27313;SDS011;14800;48.174;9.798;2022-12-31T06:50:36;0.70;;;0.70;;
27313;SDS011;14800;48.174;9.798;2022-12-31T06:53:01;1.55;;;0.50;;
27313;SDS011;14800;48.174;9.798;2022-12-31T06:55:27;0.93;;;0.32;;
27313;SDS011;14800;48.174;9.798;2022-12-31T06:57:53;0.32;;;0.32;;
27313;SDS011;14800;48.174;9.798;2022-12-31T07:00:19;1.55;;;0.30;;
27313;SDS011;14800;48.174;9.798;2022-12-31T07:06:06;2.80;;;0.38;;
27313;SDS011;14800;48.174;9.798;2022-12-31T07:08:48;0.20;;;0.20;;
27313;SDS011;14800;48.174;9.798;2022-12-31T07:11:38;0.35;;;0.35;;
27313;SDS011;14800;48.174;9.798;2022-12-31T07:17:07;0.50;;;0.43;;
27313;SDS011;14800;48.174;9.798;2022-12-31T07:20:14;0.68;;;0.50;;
27313;SDS011;14800;48.174;9.798;2022-12-31T07:22:42;0.68;;;0.30;;
27313;SDS011;14800;48.174;9.798;2022-12-31T07:25:12;0.57;;;0.40;;
27313;SDS011;14800;48.174;9.798;2022-12-31T07:33:24;1.07;;;0.50;;
27313;SDS011;14800;48.174;9.798;2022-12-31T07:36:20;0.60;;;0.55;;
27313;SDS011;14800;48.174;9.798;2022-12-31T07:47:27;1.10;;;0.80;;
27313;SDS011;14800;48.174;9.798;2022-12-31T07:49:54;0.75;;;0.75;;
27313;SDS011;14800;48.174;9.798;2022-12-31T07:52:21;0.95;;;0.90;;
27313;SDS011;14800;48.174;9.798;2022-12-31T07:54:47;1.63;;;0.90;;
27313;SDS011;14800;48.174;9.798;2022-12-31T07:57:14;0.98;;;0.90;;
27313;SDS011;14800;48.174;9.798;2022-12-31T08:13:28;0.80;;;0.80;;
27313;SDS011;14800;48.174;9.798;2022-12-31T08:15:54;0.80;;;0.80;;
27313;SDS011;14800;48.174;9.798;2022-12-31T08:18:20;0.70;;;0.63;;
27313;SDS011;14800;48.174;9.798;2022-12-31T08:20:54;0.73;;;0.73;;
27313;SDS011;14800;48.174;9.798;2022-12-31T08:23:39;1.25;;;0.60;;
27313;SDS011;14800;48.174;9.798;2022-12-31T08:26:46;2.30;;;0.50;;
27313;SDS011;14800;48.174;9.798;2022-12-31T08:29:32;1.27;;;0.60;;
27313;SDS011;14800;48.174;9.798;2022-12-31T08:32:12;1.00;;;0.70;;
27313;SDS011;14800;48.174;9.798;2022-12-31T08:34:53;0.90;;;0.80;;
27313;SDS011;14800;48.174;9.798;2022-12-31T08:38:23;0.85;;;0.68;;
27313;SDS011;14800;48.174;9.798;2022-12-31T08:40:27;0.85;;;0.70;;
27313;SDS011;14800;48.174;9.798;2022-12-31T08:43:27;1.25;;;1.15;;
27313;SDS011;14800;48.174;9.798;2022-12-31T08:45:57;1.77;;;1.38;;
27313;SDS011;14800;48.174;9.798;2022-12-31T08:50:58;2.80;;;2.00;;
27313;SDS011;14800;48.174;9.798;2022-12-31T08:53:24;3.08;;;1.90;;
27313;SDS011;14800;48.174;9.798;2022-12-31T08:55:52;2.30;;;1.50;;
27313;SDS011;14800;48.174;9.798;2022-12-31T09:01:13;0.90;;;0.70;;
27313;SDS011;14800;48.174;9.798;2022-12-31T09:03:49;1.20;;;0.73;;
27313;SDS011;14800;48.174;9.798;2022-12-31T09:06:30;1.42;;;1.08;;
27313;SDS011;14800;48.174;9.798;2022-12-31T09:09:10;1.85;;;1.10;;
27313;SDS011;14800;48.174;9.798;2022-12-31T09:17:28;1.20;;;1.10;;
27313;SDS011;14800;48.174;9.798;2022-12-31T09:19:57;2.75;;;1.95;;
27313;SDS011;14800;48.174;9.798;2022-12-31T09:22:23;1.48;;;1.38;;
27313;SDS011;14800;48.174;9.798;2022-12-31T09:24:49;2.55;;;1.40;;
27313;SDS011;14800;48.174;9.798;2022-12-31T09:27:27;5.15;;;4.65;;
27313;SDS011;14800;48.174;9.798;2022-12-31T09:32:43;2.10;;;2.00;;
27313;SDS011;14800;48.174;9.798;2022-12-31T09:35:39;1.20;;;1.10;;
27313;SDS011;14800;48.174;9.798;2022-12-31T09:47:09;0.68;;;0.40;;
27313;SDS011;14800;48.174;9.798;2022-12-31T09:55:30;0.80;;;0.60;;
27313;SDS011;14800;48.174;9.798;2022-12-31T10:00:47;0.70;;;0.50;;
27313;SDS011;14800;48.174;9.798;2022-12-31T10:11:55;1.92;;;0.90;;
27313;SDS011;14800;48.174;9.798;2022-12-31T10:20:23;0.55;;;0.52;;
27313;SDS011;14800;48.174;9.798;2022-12-31T10:30:47;0.50;;;0.50;;
27313;SDS011;14800;48.174;9.798;2022-12-31T11:01:46;0.80;;;0.80;;
27313;SDS011;14800;48.174;9.798;2022-12-31T11:28:16;0.77;;;0.77;;
27313;SDS011;14800;48.174;9.798;2022-12-31T11:33:23;0.80;;;0.50;;
27313;SDS011;14800;48.174;9.798;2022-12-31T11:41:15;0.80;;;0.70;;
27313;SDS011;14800;48.174;9.798;2022-12-31T11:43:52;0.50;;;0.50;;
27313;SDS011;14800;48.174;9.798;2022-12-31T11:57:33;1.00;;;0.45;;
27313;SDS011;14800;48.174;9.798;2022-12-31T12:02:40;0.30;;;0.30;;
27313;SDS011;14800;48.174;9.798;2022-12-31T12:05:22;0.80;;;0.30;;
27313;SDS011;14800;48.174;9.798;2022-12-31T12:07:50;0.30;;;0.30;;
27313;SDS011;14800;48.174;9.798;2022-12-31T12:10:27;0.85;;;0.30;;
27313;SDS011;14800;48.174;9.798;2022-12-31T12:12:56;0.40;;;0.35;;
27313;SDS011;14800;48.174;9.798;2022-12-31T12:15:23;0.30;;;0.30;;
27313;SDS011;14800;48.174;9.798;2022-12-31T12:17:53;0.30;;;0.30;;
27313;SDS011;14800;48.174;9.798;2022-12-31T12:20:39;0.20;;;0.20;;
27313;SDS011;14800;48.174;9.798;2022-12-31T12:23:12;0.80;;;0.20;;
27313;SDS011;14800;48.174;9.798;2022-12-31T12:25:41;0.20;;;0.20;;
27313;SDS011;14800;48.174;9.798;2022-12-31T12:28:18;1.67;;;0.20;;
27313;SDS011;14800;48.174;9.798;2022-12-31T12:30:45;0.50;;;0.30;;
27313;SDS011;14800;48.174;9.798;2022-12-31T12:33:18;0.38;;;0.38;;
27313;SDS011;14800;48.174;9.798;2022-12-31T12:35:44;0.95;;;0.30;;
27313;SDS011;14800;48.174;9.798;2022-12-31T12:38:15;0.75;;;0.50;;
27313;SDS011;14800;48.174;9.798;2022-12-31T12:40:56;0.65;;;0.50;;
27313;SDS011;14800;48.174;9.798;2022-12-31T12:43:30;0.50;;;0.30;;
27313;SDS011;14800;48.174;9.798;2022-12-31T12:45:59;0.55;;;0.30;;
27313;SDS011;14800;48.174;9.798;2022-12-31T12:50:56;0.77;;;0.60;;
27313;SDS011;14800;48.174;9.798;2022-12-31T12:53:29;0.43;;;0.38;;
27313;SDS011;14800;48.174;9.798;2022-12-31T12:59:07;0.60;;;0.60;;
27313;SDS011;14800;48.174;9.798;2022-12-31T13:01:46;0.80;;;0.80;;
27313;SDS011;14800;48.174;9.798;2022-12-31T13:10:04;0.50;;;0.50;;
27313;SDS011;14800;48.174;9.798;2022-12-31T13:15:54;0.40;;;0.35;;
27313;SDS011;14800;48.174;9.798;2022-12-31T13:21:18;1.00;;;0.30;;
27313;SDS011;14800;48.174;9.798;2022-12-31T13:26:42;0.70;;;0.30;;
27313;SDS011;14800;48.174;9.798;2022-12-31T13:29:19;0.95;;;0.30;;
27313;SDS011;14800;48.174;9.798;2022-12-31T13:31:47;0.82;;;0.30;;
27313;SDS011;14800;48.174;9.798;2022-12-31T13:34:16;0.30;;;0.30;;
27313;SDS011;14800;48.174;9.798;2022-12-31T13:36:58;0.20;;;0.20;;
27313;SDS011;14800;48.174;9.798;2022-12-31T13:39:30;1.75;;;0.50;;
27313;SDS011;14800;48.174;9.798;2022-12-31T13:42:17;0.50;;;0.50;;
27313;SDS011;14800;48.174;9.798;2022-12-31T13:44:49;0.70;;;0.70;;
27313;SDS011;14800;48.174;9.798;2022-12-31T13:53:01;6.05;;;4.45;;
27313;SDS011;14800;48.174;9.798;2022-12-31T13:55:37;5.90;;;4.93;;
27313;SDS011;14800;48.174;9.798;2022-12-31T14:00:52;5.13;;;4.72;;
27313;SDS011;14800;48.174;9.798;2022-12-31T14:06:27;3.58;;;1.50;;
27313;SDS011;14800;48.174;9.798;2022-12-31T14:08:53;1.45;;;1.35;;
27313;SDS011;14800;48.174;9.798;2022-12-31T14:11:26;5.10;;;2.03;;
27313;SDS011;14800;48.174;9.798;2022-12-31T14:19:33;1.90;;;1.60;;
27313;SDS011;14800;48.174;9.798;2022-12-31T14:22:12;2.08;;;1.88;;
27313;SDS011;14800;48.174;9.798;2022-12-31T14:24:46;3.50;;;2.20;;
27313;SDS011;14800;48.174;9.798;2022-12-31T14:29:47;3.70;;;3.40;;
27313;SDS011;14800;48.174;9.798;2022-12-31T14:52:34;4.22;;;1.90;;
27313;SDS011;14800;48.174;9.798;2022-12-31T15:02:54;1.45;;;0.98;;
27313;SDS011;14800;48.174;9.798;2022-12-31T15:05:31;0.88;;;0.88;;
27313;SDS011;14800;48.174;9.798;2022-12-31T15:08:06;2.20;;;0.88;;
27313;SDS011;14800;48.174;9.798;2022-12-31T15:18:56;2.50;;;2.13;;
27313;SDS011;14800;48.174;9.798;2022-12-31T15:24:11;9.88;;;8.27;;
27313;SDS011;14800;48.174;9.798;2022-12-31T15:26:46;2.45;;;2.28;;
27313;SDS011;14800;48.174;9.798;2022-12-31T15:29:57;5.22;;;4.20;;
27313;SDS011;14800;48.174;9.798;2022-12-31T15:32:14;3.15;;;2.67;;
27313;SDS011;14800;48.174;9.798;2022-12-31T15:34:43;4.03;;;3.67;;
27313;SDS011;14800;48.174;9.798;2022-12-31T15:40:14;6.50;;;4.15;;
27313;SDS011;14800;48.174;9.798;2022-12-31T15:42:53;4.00;;;3.47;;
27313;SDS011;14800;48.174;9.798;2022-12-31T15:45:30;4.28;;;3.88;;
27313;SDS011;14800;48.174;9.798;2022-12-31T15:47:58;4.18;;;3.55;;
27313;SDS011;14800;48.174;9.798;2022-12-31T15:50:27;5.95;;;3.72;;
27313;SDS011;14800;48.174;9.798;2022-12-31T15:52:54;3.65;;;3.35;;
27313;SDS011;14800;48.174;9.798;2022-12-31T15:55:25;2.97;;;2.67;;
27313;SDS011;14800;48.174;9.798;2022-12-31T15:57:57;2.33;;;2.10;;
27313;SDS011;14800;48.174;9.798;2022-12-31T16:00:33;2.33;;;2.13;;
27313;SDS011;14800;48.174;9.798;2022-12-31T16:03:22;2.22;;;1.73;;
27313;SDS011;14800;48.174;9.798;2022-12-31T16:05:50;1.55;;;1.30;;
27313;SDS011;14800;48.174;9.798;2022-12-31T16:08:18;1.30;;;1.20;;
27313;SDS011;14800;48.174;9.798;2022-12-31T16:10:46;1.80;;;1.50;;
27313;SDS011;14800;48.174;9.798;2022-12-31T16:13:22;2.15;;;1.65;;
27313;SDS011;14800;48.174;9.798;2022-12-31T16:15:54;3.60;;;1.83;;
27313;SDS011;14800;48.174;9.798;2022-12-31T16:18:34;3.53;;;2.20;;
27313;SDS011;14800;48.174;9.798;2022-12-31T16:21:01;11.70;;;9.50;;
27313;SDS011;14800;48.174;9.798;2022-12-31T16:23:27;5.03;;;4.38;;
27313;SDS011;14800;48.174;9.798;2022-12-31T16:25:53;6.38;;;5.22;;
27313;SDS011;14800;48.174;9.798;2022-12-31T16:28:23;7.47;;;5.88;;
27313;SDS011;14800;48.174;9.798;2022-12-31T16:31:16;8.88;;;7.25;;
27313;SDS011;14800;48.174;9.798;2022-12-31T16:33:42;6.88;;;5.75;;
27313;SDS011;14800;48.174;9.798;2022-12-31T16:36:19;8.48;;;7.05;;
27313;SDS011;14800;48.174;9.798;2022-12-31T16:38:46;11.45;;;8.10;;
27313;SDS011;14800;48.174;9.798;2022-12-31T16:43:43;14.05;;;8.43;;
27313;SDS011;14800;48.174;9.798;2022-12-31T16:48:46;22.80;;;15.68;;
27313;SDS011;14800;48.174;9.798;2022-12-31T16:51:17;16.05;;;10.98;;
27313;SDS011;14800;48.174;9.798;2022-12-31T16:53:45;21.15;;;14.50;;
27313;SDS011;14800;48.174;9.798;2022-12-31T16:56:14;17.85;;;12.27;;
27313;SDS011;14800;48.174;9.798;2022-12-31T16:58:48;24.10;;;17.05;;
27313;SDS011;14800;48.174;9.798;2022-12-31T17:01:18;32.20;;;21.15;;
27313;SDS011;14800;48.174;9.798;2022-12-31T17:03:48;36.47;;;25.48;;
27313;SDS011;14800;48.174;9.798;2022-12-31T17:06:23;36.67;;;26.05;;
27313;SDS011;14800;48.174;9.798;2022-12-31T17:14:26;33.88;;;22.38;;
27313;SDS011;14800;48.174;9.798;2022-12-31T17:17:00;28.08;;;19.02;;
27313;SDS011;14800;48.174;9.798;2022-12-31T17:19:42;18.92;;;12.95;;
27313;SDS011;14800;48.174;9.798;2022-12-31T17:22:33;18.05;;;11.80;;
27313;SDS011;14800;48.174;9.798;2022-12-31T17:25:21;15.32;;;10.75;;
27313;SDS011;14800;48.174;9.798;2022-12-31T17:28:19;16.20;;;11.38;;
27313;SDS011;14800;48.174;9.798;2022-12-31T17:30:46;11.07;;;8.52;;
27313;SDS011;14800;48.174;9.798;2022-12-31T17:35:47;11.98;;;8.38;;
27313;SDS011;14800;48.174;9.798;2022-12-31T17:40:49;11.27;;;8.40;;
27313;SDS011;14800;48.174;9.798;2022-12-31T17:43:28;12.02;;;8.25;;
27313;SDS011;14800;48.174;9.798;2022-12-31T17:45:56;12.38;;;9.15;;
27313;SDS011;14800;48.174;9.798;2022-12-31T17:48:23;17.35;;;9.65;;
27313;SDS011;14800;48.174;9.798;2022-12-31T17:50:50;12.18;;;9.43;;
27313;SDS011;14800;48.174;9.798;2022-12-31T17:53:20;14.32;;;10.30;;
27313;SDS011;14800;48.174;9.798;2022-12-31T17:55:47;11.00;;;8.23;;
27313;SDS011;14800;48.174;9.798;2022-12-31T17:58:16;11.50;;;8.15;;
27313;SDS011;14800;48.174;9.798;2022-12-31T18:00:52;9.55;;;7.55;;
27313;SDS011;14800;48.174;9.798;2022-12-31T18:03:18;8.85;;;7.18;;
27313;SDS011;14800;48.174;9.798;2022-12-31T18:05:44;11.50;;;8.38;;
27313;SDS011;14800;48.174;9.798;2022-12-31T18:08:10;12.15;;;8.35;;
27313;SDS011;14800;48.174;9.798;2022-12-31T18:10:37;15.02;;;10.25;;
27313;SDS011;14800;48.174;9.798;2022-12-31T18:13:04;13.35;;;9.70;;
27313;SDS011;14800;48.174;9.798;2022-12-31T18:15:32;12.65;;;9.07;;
27313;SDS011;14800;48.174;9.798;2022-12-31T18:17:57;12.30;;;9.30;;
27313;SDS011;14800;48.174;9.798;2022-12-31T18:20:23;12.82;;;8.43;;
27313;SDS011;14800;48.174;9.798;2022-12-31T18:22:50;13.48;;;9.27;;
27313;SDS011;14800;48.174;9.798;2022-12-31T18:25:17;16.70;;;10.52;;
27313;SDS011;14800;48.174;9.798;2022-12-31T18:27:45;17.83;;;10.88;;
27313;SDS011;14800;48.174;9.798;2022-12-31T18:30:11;17.23;;;11.43;;
27313;SDS011;14800;48.174;9.798;2022-12-31T18:32:37;19.48;;;12.82;;
27313;SDS011;14800;48.174;9.798;2022-12-31T18:35:05;21.63;;;13.82;;
27313;SDS011;14800;48.174;9.798;2022-12-31T18:37:35;23.52;;;14.38;;
27313;SDS011;14800;48.174;9.798;2022-12-31T18:40:01;24.45;;;14.93;;
27313;SDS011;14800;48.174;9.798;2022-12-31T18:42:26;17.08;;;10.65;;
27313;SDS011;14800;48.174;9.798;2022-12-31T18:44:52;13.70;;;9.20;;
27313;SDS011;14800;48.174;9.798;2022-12-31T18:47:18;11.98;;;8.02;;
27313;SDS011;14800;48.174;9.798;2022-12-31T18:49:48;8.60;;;5.88;;
27313;SDS011;14800;48.174;9.798;2022-12-31T18:52:15;7.25;;;5.20;;
27313;SDS011;14800;48.174;9.798;2022-12-31T18:54:43;8.93;;;5.40;;
27313;SDS011;14800;48.174;9.798;2022-12-31T18:57:12;8.40;;;4.70;;
27313;SDS011;14800;48.174;9.798;2022-12-31T18:59:39;5.45;;;4.47;;
27313;SDS011;14800;48.174;9.798;2022-12-31T19:02:10;7.45;;;5.72;;
27313;SDS011;14800;48.174;9.798;2022-12-31T19:04:39;9.50;;;6.03;;
27313;SDS011;14800;48.174;9.798;2022-12-31T19:07:04;9.10;;;6.78;;
27313;SDS011;14800;48.174;9.798;2022-12-31T19:09:30;9.90;;;6.05;;
27313;SDS011;14800;48.174;9.798;2022-12-31T19:11:55;8.15;;;5.82;;
27313;SDS011;14800;48.174;9.798;2022-12-31T19:14:22;4.43;;;3.60;;
27313;SDS011;14800;48.174;9.798;2022-12-31T19:16:50;4.38;;;3.35;;
27313;SDS011;14800;48.174;9.798;2022-12-31T19:19:17;3.53;;;2.80;;
27313;SDS011;14800;48.174;9.798;2022-12-31T19:21:43;5.03;;;2.70;;
27313;SDS011;14800;48.174;9.798;2022-12-31T19:26:45;6.90;;;4.40;;
27313;SDS011;14800;48.174;9.798;2022-12-31T19:29:15;6.45;;;3.53;;
27313;SDS011;14800;48.174;9.798;2022-12-31T19:31:46;5.13;;;3.05;;
27313;SDS011;14800;48.174;9.798;2022-12-31T19:34:11;3.65;;;2.80;;
27313;SDS011;14800;48.174;9.798;2022-12-31T19:36:37;3.15;;;2.60;;
27313;SDS011;14800;48.174;9.798;2022-12-31T19:39:04;4.40;;;4.00;;
27313;SDS011;14800;48.174;9.798;2022-12-31T19:41:31;9.15;;;6.28;;
27313;SDS011;14800;48.174;9.798;2022-12-31T19:43:57;6.47;;;5.18;;
27313;SDS011;14800;48.174;9.798;2022-12-31T19:46:22;4.85;;;4.03;;
27313;SDS011;14800;48.174;9.798;2022-12-31T19:48:49;5.75;;;4.65;;
27313;SDS011;14800;48.174;9.798;2022-12-31T19:51:18;8.95;;;5.72;;
27313;SDS011;14800;48.174;9.798;2022-12-31T19:53:46;12.07;;;6.85;;